createdAt,value
2019-01-03T00:00:05.161Z,0
2019-01-03T00:01:07.558Z,0
2019-01-03T00:02:10.265Z,0
2019-01-03T00:03:12.405Z,0
2019-01-03T00:04:14.531Z,0
2019-01-03T00:05:16.640Z,0
2019-01-03T00:06:18.813Z,0
2019-01-03T00:07:20.943Z,0
2019-01-03T00:08:23.057Z,0
2019-01-03T00:09:25.313Z,0
2019-01-03T00:10:27.866Z,0
2019-01-03T00:11:30.011Z,0
2019-01-03T00:12:32.144Z,0
2019-01-03T00:13:34.264Z,0
2019-01-03T00:14:36.390Z,0
2019-01-03T00:15:38.536Z,0
2019-01-03T00:16:40.961Z,0
2019-01-03T00:17:43.105Z,0
2019-01-03T00:18:45.255Z,0
2019-01-03T00:19:47.410Z,0
2019-01-03T00:20:49.577Z,0
2019-01-03T00:21:52.007Z,0
2019-01-03T00:22:54.192Z,0
2019-01-03T00:23:56.312Z,0
2019-01-03T00:24:58.433Z,0
2019-01-03T00:26:00.558Z,0
2019-01-03T00:27:02.705Z,0
2019-01-03T00:28:05.144Z,0
2019-01-03T00:29:07.309Z,0
2019-01-03T00:30:09.450Z,0
2019-01-03T00:31:11.561Z,0
2019-01-03T00:32:13.681Z,0
2019-01-03T00:33:16.073Z,0
2019-01-03T00:34:18.202Z,0
2019-01-03T00:35:20.363Z,0
2019-01-03T00:36:22.485Z,0
2019-01-03T00:37:24.637Z,0
2019-01-03T00:38:26.767Z,0
2019-01-03T00:39:29.281Z,0
2019-01-03T00:40:31.389Z,0
2019-01-03T00:41:33.513Z,0
2019-01-03T00:42:35.634Z,0
2019-01-03T00:43:37.744Z,0
2019-01-03T00:44:40.161Z,0
2019-01-03T00:45:42.300Z,0
2019-01-03T00:46:44.439Z,0
2019-01-03T00:47:46.569Z,0
2019-01-03T00:48:48.720Z,0
2019-01-03T00:49:50.852Z,0
2019-01-03T00:50:53.267Z,0
2019-01-03T00:51:55.699Z,0
2019-01-03T00:52:57.813Z,0
2019-01-03T00:54:00.220Z,0
2019-01-03T00:55:02.665Z,0
2019-01-03T00:56:04.795Z,0
2019-01-03T00:57:06.929Z,0
2019-01-03T00:58:09.060Z,0
2019-01-03T00:59:11.182Z,0
2019-01-03T01:00:13.302Z,0
2019-01-03T01:01:15.432Z,0
2019-01-03T01:02:17.570Z,0
2019-01-03T01:03:19.682Z,0
2019-01-03T01:04:21.805Z,0
2019-01-03T01:05:24.194Z,0
2019-01-03T01:06:26.326Z,0
2019-01-03T01:07:28.468Z,0
2019-01-03T01:08:30.592Z,0
2019-01-03T01:09:33.095Z,0
2019-01-03T01:10:35.222Z,0
2019-01-03T01:11:37.345Z,0
2019-01-03T01:12:39.481Z,0
2019-01-03T01:13:41.623Z,0
2019-01-03T01:14:43.751Z,0
2019-01-03T01:15:46.267Z,0
2019-01-03T01:16:48.458Z,0
2019-01-03T01:17:50.569Z,0
2019-01-03T01:18:52.703Z,0
2019-01-03T01:19:54.829Z,0
2019-01-03T01:20:57.016Z,0
2019-01-03T01:21:59.449Z,0
2019-01-03T01:23:01.580Z,0
2019-01-03T01:24:04.017Z,0
2019-01-03T01:25:06.160Z,0
2019-01-03T01:26:08.286Z,0
2019-01-03T01:27:10.392Z,0
2019-01-03T01:28:12.831Z,0
2019-01-03T01:29:14.957Z,0
2019-01-03T01:30:17.364Z,0
2019-01-03T01:31:19.476Z,0
2019-01-03T01:32:21.880Z,0
2019-01-03T01:33:23.981Z,0
2019-01-03T01:34:26.096Z,0
2019-01-03T01:35:28.254Z,0
2019-01-03T01:36:30.390Z,0
2019-01-03T01:37:32.534Z,0
2019-01-03T01:38:34.668Z,0
2019-01-03T01:39:36.810Z,0
2019-01-03T01:40:38.942Z,0
2019-01-03T01:41:41.074Z,0
2019-01-03T01:42:43.207Z,0
2019-01-03T01:43:45.721Z,0
2019-01-03T01:44:47.818Z,0
2019-01-03T01:45:49.934Z,0
2019-01-03T01:46:52.101Z,0
2019-01-03T01:47:54.627Z,0
2019-01-03T01:48:56.773Z,0
2019-01-03T01:49:58.923Z,0
2019-01-03T01:51:01.059Z,0
2019-01-03T01:52:03.567Z,0
2019-01-03T01:53:05.704Z,0
2019-01-03T01:54:07.803Z,0
2019-01-03T01:55:09.940Z,0
2019-01-03T01:56:12.081Z,0
2019-01-03T01:57:14.250Z,0
2019-01-03T01:58:16.370Z,0
2019-01-03T01:59:18.496Z,0
2019-01-03T02:00:20.933Z,0
2019-01-03T02:01:23.063Z,0
2019-01-03T02:02:25.511Z,0
2019-01-03T02:03:27.627Z,0
2019-01-03T02:04:29.768Z,0
2019-01-03T02:05:31.892Z,0
2019-01-03T02:06:34.054Z,0
2019-01-03T02:07:36.188Z,0
2019-01-03T02:08:38.302Z,0
2019-01-03T02:09:40.430Z,0
2019-01-03T02:10:42.569Z,0
2019-01-03T02:11:44.695Z,0
2019-01-03T02:12:46.836Z,0
2019-01-03T02:13:48.951Z,0
2019-01-03T02:14:51.106Z,0
2019-01-03T02:15:53.251Z,0
2019-01-03T02:16:55.361Z,0
2019-01-03T02:17:57.475Z,0
2019-01-03T02:18:59.622Z,0
2019-01-03T02:20:02.310Z,0
2019-01-03T02:21:04.459Z,0
2019-01-03T02:22:06.590Z,0
2019-01-03T02:23:08.736Z,0
2019-01-03T02:24:10.861Z,0
2019-01-03T02:25:12.982Z,0
2019-01-03T02:26:15.104Z,0
2019-01-03T02:27:17.252Z,0
2019-01-03T02:28:19.379Z,0
2019-01-03T02:29:21.511Z,0
2019-01-03T02:30:23.685Z,0
2019-01-03T02:31:26.095Z,0
2019-01-03T02:32:28.220Z,0
2019-01-03T02:33:30.600Z,0
2019-01-03T02:34:32.744Z,0
2019-01-03T02:35:34.859Z,0
2019-01-03T02:36:37.304Z,0
2019-01-03T02:37:39.771Z,0
2019-01-03T02:38:41.896Z,0
2019-01-03T02:39:44.024Z,0
2019-01-03T02:40:46.168Z,0
2019-01-03T02:41:48.622Z,0
2019-01-03T02:42:50.756Z,0
2019-01-03T02:43:52.886Z,0
2019-01-03T02:44:55.027Z,0
2019-01-03T02:45:57.470Z,0
2019-01-03T02:46:59.622Z,0
2019-01-03T02:48:01.765Z,0
2019-01-03T02:49:04.568Z,0
2019-01-03T02:50:06.707Z,0
2019-01-03T02:51:09.148Z,0
2019-01-03T02:52:11.280Z,0
2019-01-03T02:53:13.388Z,0
2019-01-03T02:54:15.909Z,0
2019-01-03T02:55:18.017Z,0
2019-01-03T02:56:20.170Z,0
2019-01-03T02:57:22.296Z,0
2019-01-03T02:58:25.126Z,0
2019-01-03T02:59:27.272Z,0
2019-01-03T03:00:29.436Z,0
2019-01-03T03:01:31.965Z,0
2019-01-03T03:02:34.413Z,0
2019-01-03T03:03:36.548Z,0
2019-01-03T03:04:38.662Z,0
2019-01-03T03:05:40.780Z,0
2019-01-03T03:06:42.913Z,0
2019-01-03T03:07:45.720Z,0
2019-01-03T03:08:47.867Z,0
2019-01-03T03:09:49.993Z,0
2019-01-03T03:10:52.374Z,0
2019-01-03T03:11:54.516Z,0
2019-01-03T03:12:56.644Z,0
2019-01-03T03:13:59.063Z,0
2019-01-03T03:15:01.272Z,0
2019-01-03T03:16:03.427Z,0
2019-01-03T03:17:05.572Z,0
2019-01-03T03:18:07.708Z,0
2019-01-03T03:19:09.849Z,0
2019-01-03T03:20:11.972Z,0
2019-01-03T03:21:14.133Z,0
2019-01-03T03:22:16.256Z,0
2019-01-03T03:23:18.398Z,0
2019-01-03T03:24:20.536Z,0
2019-01-03T03:25:22.986Z,0
2019-01-03T03:26:25.114Z,0
2019-01-03T03:27:27.269Z,0
2019-01-03T03:28:29.389Z,0
2019-01-03T03:29:31.511Z,0
2019-01-03T03:30:33.678Z,0
2019-01-03T03:31:36.648Z,0
2019-01-03T03:32:39.527Z,0
2019-01-03T03:33:41.668Z,0
2019-01-03T03:34:44.564Z,0
2019-01-03T03:35:46.999Z,0
2019-01-03T03:36:49.128Z,0
2019-01-03T03:37:51.265Z,0
2019-01-03T03:38:53.394Z,0
2019-01-03T03:39:55.502Z,0
2019-01-03T03:40:57.928Z,0
2019-01-03T03:42:00.040Z,0
2019-01-03T03:43:02.485Z,0
2019-01-03T03:44:04.931Z,0
2019-01-03T03:45:07.101Z,0
2019-01-03T03:46:09.650Z,0
2019-01-03T03:47:11.797Z,0
2019-01-03T03:48:14.343Z,0
2019-01-03T03:49:16.472Z,0
2019-01-03T03:50:18.896Z,0
2019-01-03T03:51:21.034Z,0
2019-01-03T03:52:23.149Z,0
2019-01-03T03:53:25.277Z,0
2019-01-03T03:54:27.702Z,0
2019-01-03T03:55:29.859Z,0
2019-01-03T03:56:32.000Z,0
2019-01-03T03:57:34.119Z,0
2019-01-03T03:58:36.267Z,0
2019-01-03T03:59:38.411Z,0
2019-01-03T04:00:40.571Z,0
2019-01-03T04:01:42.714Z,0
2019-01-03T04:02:44.852Z,0
2019-01-03T04:03:46.976Z,0
2019-01-03T04:04:49.113Z,0
2019-01-03T04:05:51.248Z,0
2019-01-03T04:06:53.639Z,0
2019-01-03T04:07:56.048Z,0
2019-01-03T04:08:58.183Z,0
2019-01-03T04:10:00.404Z,0
2019-01-03T04:11:02.927Z,0
2019-01-03T04:12:05.099Z,0
2019-01-03T04:13:07.241Z,0
2019-01-03T04:14:09.665Z,0
2019-01-03T04:15:11.786Z,0
2019-01-03T04:16:13.967Z,0
2019-01-03T04:17:16.503Z,0
2019-01-03T04:18:18.628Z,0
2019-01-03T04:19:21.018Z,0
2019-01-03T04:20:23.410Z,0
2019-01-03T04:21:25.550Z,0
2019-01-03T04:22:28.090Z,0
2019-01-03T04:23:30.218Z,0
2019-01-03T04:24:32.341Z,0
2019-01-03T04:25:34.464Z,0
2019-01-03T04:26:36.602Z,0
2019-01-03T04:27:39.012Z,0
2019-01-03T04:28:41.431Z,0
2019-01-03T04:29:43.846Z,0
2019-01-03T04:30:46.656Z,0
2019-01-03T04:31:48.778Z,0
2019-01-03T04:32:50.922Z,0
2019-01-03T04:33:53.360Z,0
2019-01-03T04:34:55.497Z,0
2019-01-03T04:35:58.009Z,0
2019-01-03T04:37:00.435Z,0
2019-01-03T04:38:02.581Z,0
2019-01-03T04:39:05.089Z,0
2019-01-03T04:40:07.256Z,0
2019-01-03T04:41:09.431Z,0
2019-01-03T04:42:11.578Z,0
2019-01-03T04:43:13.719Z,0
2019-01-03T04:44:16.422Z,0
2019-01-03T04:45:18.538Z,0
2019-01-03T04:46:20.674Z,0
2019-01-03T04:47:22.854Z,0
2019-01-03T04:48:24.981Z,0
2019-01-03T04:49:27.148Z,0
2019-01-03T04:50:29.297Z,0
2019-01-03T04:51:31.460Z,0
2019-01-03T04:52:33.572Z,0
2019-01-03T04:53:36.100Z,0
2019-01-03T04:54:39.223Z,0
2019-01-03T04:55:41.355Z,0
2019-01-03T04:56:43.484Z,0
2019-01-03T04:57:45.604Z,0
2019-01-03T04:58:48.040Z,0
2019-01-03T04:59:50.215Z,0
2019-01-03T05:00:52.754Z,0
2019-01-03T05:01:54.897Z,0
2019-01-03T05:02:57.032Z,0
2019-01-03T05:03:59.174Z,0
2019-01-03T05:05:01.613Z,0
2019-01-03T05:06:03.773Z,0
2019-01-03T05:07:05.899Z,0
2019-01-03T05:08:08.334Z,0
2019-01-03T05:09:10.480Z,0
2019-01-03T05:10:12.604Z,0
2019-01-03T05:11:14.758Z,0
2019-01-03T05:12:17.151Z,0
2019-01-03T05:13:19.302Z,0
2019-01-03T05:14:21.441Z,0
2019-01-03T05:15:23.886Z,0
2019-01-03T05:16:26.009Z,0
2019-01-03T05:17:28.214Z,0
2019-01-03T05:18:31.968Z,0
2019-01-03T05:19:34.214Z,0
2019-01-03T05:20:36.698Z,0
2019-01-03T05:21:38.837Z,0
2019-01-03T05:22:41.255Z,0
2019-01-03T05:23:43.375Z,0
2019-01-03T05:24:45.517Z,0
2019-01-03T05:25:47.662Z,0
2019-01-03T05:26:49.819Z,0
2019-01-03T05:27:51.944Z,0
2019-01-03T05:28:54.080Z,0
2019-01-03T05:29:56.223Z,0
2019-01-03T05:30:58.356Z,0
2019-01-03T05:32:00.481Z,0
2019-01-03T05:33:02.628Z,0
2019-01-03T05:34:04.764Z,0
2019-01-03T05:35:06.930Z,0
2019-01-03T05:36:09.442Z,0
2019-01-03T05:37:11.605Z,0
2019-01-03T05:38:13.752Z,0
2019-01-03T05:39:16.219Z,0
2019-01-03T05:40:18.341Z,0
2019-01-03T05:41:20.766Z,0
2019-01-03T05:42:22.907Z,0
2019-01-03T05:43:25.313Z,0
2019-01-03T05:44:27.739Z,0
2019-01-03T05:45:29.914Z,0
2019-01-03T05:46:32.059Z,0
2019-01-03T05:47:34.488Z,0
2019-01-03T05:48:36.909Z,0
2019-01-03T05:49:39.058Z,0
2019-01-03T05:50:41.180Z,0
2019-01-03T05:51:43.311Z,0
2019-01-03T05:52:45.431Z,0
2019-01-03T05:53:47.938Z,0
2019-01-03T05:54:50.069Z,0
2019-01-03T05:55:52.238Z,0
2019-01-03T05:56:54.380Z,0
2019-01-03T05:57:56.501Z,0
2019-01-03T05:58:58.927Z,0
2019-01-03T06:00:01.142Z,0
2019-01-03T06:01:03.571Z,0
2019-01-03T06:02:05.775Z,0
2019-01-03T06:03:08.186Z,0
2019-01-03T06:04:10.326Z,0
2019-01-03T06:05:12.445Z,0
2019-01-03T06:06:14.856Z,0
2019-01-03T06:07:16.984Z,0
2019-01-03T06:08:19.089Z,0
2019-01-03T06:09:21.203Z,0
2019-01-03T06:10:23.344Z,0
2019-01-03T06:11:26.129Z,0
2019-01-03T06:12:28.275Z,0
2019-01-03T06:13:30.711Z,0
2019-01-03T06:14:33.159Z,0
2019-01-03T06:15:35.599Z,0
2019-01-03T06:16:37.728Z,0
2019-01-03T06:17:40.142Z,0
2019-01-03T06:18:42.269Z,0
2019-01-03T06:19:44.699Z,0
2019-01-03T06:20:46.829Z,0
2019-01-03T06:21:49.262Z,0
2019-01-03T06:22:51.390Z,0
2019-01-03T06:23:53.529Z,0
2019-01-03T06:24:55.653Z,0
2019-01-03T06:25:58.550Z,0
2019-01-03T06:27:00.695Z,0
2019-01-03T06:28:02.833Z,0
2019-01-03T06:29:04.958Z,0
2019-01-03T06:30:07.105Z,0
2019-01-03T06:31:09.229Z,0
2019-01-03T06:32:11.360Z,0
2019-01-03T06:33:13.756Z,0
2019-01-03T06:34:15.899Z,0
2019-01-03T06:35:18.333Z,0
2019-01-03T06:36:20.782Z,0
2019-01-03T06:37:22.929Z,0
2019-01-03T06:38:25.117Z,0
2019-01-03T06:39:27.312Z,0
2019-01-03T06:40:29.471Z,0
2019-01-03T06:41:32.008Z,0
2019-01-03T06:42:34.122Z,0
2019-01-03T06:43:36.319Z,0
2019-01-03T06:44:38.438Z,0
2019-01-03T06:45:40.580Z,0
2019-01-03T06:46:42.711Z,0
2019-01-03T06:47:44.852Z,0
2019-01-03T06:48:46.958Z,0
2019-01-03T06:49:49.097Z,0
2019-01-03T06:50:51.226Z,0
2019-01-03T06:51:53.337Z,0
2019-01-03T06:52:55.466Z,0
2019-01-03T06:53:57.872Z,0
2019-01-03T06:55:00.349Z,0
2019-01-03T06:56:02.453Z,0
2019-01-03T06:57:04.604Z,0
2019-01-03T06:58:06.765Z,0
2019-01-03T06:59:08.894Z,0
2019-01-03T07:00:11.028Z,0
2019-01-03T07:01:13.438Z,0
2019-01-03T07:02:15.589Z,0
2019-01-03T07:03:17.721Z,0
2019-01-03T07:04:19.865Z,0
2019-01-03T07:05:21.982Z,0
2019-01-03T07:06:24.111Z,0
2019-01-03T07:07:26.286Z,0
2019-01-03T07:08:28.402Z,0
2019-01-03T07:09:30.541Z,0
2019-01-03T07:10:32.680Z,0
2019-01-03T07:11:34.796Z,0
2019-01-03T07:12:36.912Z,0
2019-01-03T07:13:39.019Z,0
2019-01-03T07:14:41.139Z,0
2019-01-03T07:15:43.253Z,0
2019-01-03T07:16:45.381Z,0
2019-01-03T07:17:47.516Z,0
2019-01-03T07:18:49.642Z,0
2019-01-03T07:19:51.786Z,0
2019-01-03T07:20:53.909Z,1
2019-01-03T07:21:56.296Z,1
2019-01-03T07:22:58.407Z,1
2019-01-03T07:24:00.538Z,1
2019-01-03T07:25:02.655Z,1
2019-01-03T07:26:04.784Z,1
2019-01-03T07:27:06.887Z,1
2019-01-03T07:28:08.997Z,1
2019-01-03T07:29:11.122Z,1
2019-01-03T07:30:13.266Z,1
2019-01-03T07:31:15.373Z,2
2019-01-03T07:32:17.812Z,2
2019-01-03T07:33:19.925Z,2
2019-01-03T07:34:22.360Z,2
2019-01-03T07:35:24.511Z,2
2019-01-03T07:36:26.646Z,2
2019-01-03T07:37:28.780Z,2
2019-01-03T07:38:30.942Z,3
2019-01-03T07:39:33.075Z,3
2019-01-03T07:40:35.201Z,3
2019-01-03T07:41:37.338Z,3
2019-01-03T07:42:39.486Z,3
2019-01-03T07:43:41.620Z,3
2019-01-03T07:44:44.022Z,4
2019-01-03T07:45:46.141Z,4
2019-01-03T07:46:48.262Z,4
2019-01-03T07:47:50.372Z,4
2019-01-03T07:48:52.510Z,4
2019-01-03T07:49:54.643Z,5
2019-01-03T07:50:56.755Z,5
2019-01-03T07:51:58.866Z,5
2019-01-03T07:53:00.992Z,5
2019-01-03T07:54:03.125Z,5
2019-01-03T07:55:05.311Z,6
2019-01-03T07:56:07.498Z,6
2019-01-03T07:57:09.608Z,6
2019-01-03T07:58:11.709Z,6
2019-01-03T07:59:14.124Z,6
2019-01-03T08:00:16.244Z,6
2019-01-03T08:01:18.626Z,6
2019-01-03T08:02:20.752Z,7
2019-01-03T08:03:22.889Z,7
2019-01-03T08:04:25.013Z,7
2019-01-03T08:05:27.201Z,7
2019-01-03T08:06:29.328Z,8
2019-01-03T08:07:31.465Z,8
2019-01-03T08:08:33.609Z,8
2019-01-03T08:09:35.740Z,8
2019-01-03T08:10:37.860Z,9
2019-01-03T08:11:39.975Z,9
2019-01-03T08:12:42.103Z,10
2019-01-03T08:13:46.981Z,11
2019-01-03T08:14:49.117Z,11
2019-01-03T08:15:51.246Z,12
2019-01-03T08:16:53.374Z,12
2019-01-03T08:17:55.741Z,14
2019-01-03T08:18:57.864Z,25
2019-01-03T08:20:00.012Z,28
2019-01-03T08:21:02.163Z,23
2019-01-03T08:22:04.681Z,18
2019-01-03T08:23:06.816Z,19
2019-01-03T08:24:08.935Z,23
2019-01-03T08:25:11.130Z,14
2019-01-03T08:26:13.264Z,14
2019-01-03T08:27:15.393Z,14
2019-01-03T08:28:17.529Z,14
2019-01-03T08:29:19.657Z,13
2019-01-03T08:30:22.064Z,13
2019-01-03T08:31:24.189Z,14
2019-01-03T08:32:26.330Z,14
2019-01-03T08:33:28.496Z,15
2019-01-03T08:34:30.625Z,15
2019-01-03T08:35:33.156Z,16
2019-01-03T08:36:35.305Z,15
2019-01-03T08:37:37.814Z,15
2019-01-03T08:38:39.935Z,15
2019-01-03T08:39:48.963Z,17
2019-01-03T08:41:23.152Z,18
2019-01-03T08:42:32.866Z,18
2019-01-03T08:43:44.514Z,18
2019-01-03T08:44:50.059Z,19
2019-01-03T08:45:59.615Z,20
2019-01-03T08:47:12.099Z,20
2019-01-03T08:48:14.549Z,23
2019-01-03T08:49:16.682Z,23
2019-01-03T08:50:18.821Z,23
2019-01-03T08:51:20.955Z,23
2019-01-03T08:52:23.474Z,21
2019-01-03T08:53:33.659Z,21
2019-01-03T08:54:41.700Z,21
2019-01-03T08:55:52.891Z,20
2019-01-03T08:56:59.179Z,21
2019-01-03T08:58:14.315Z,22
2019-01-03T08:59:34.214Z,22
2019-01-03T09:00:36.749Z,23
2019-01-03T09:01:38.899Z,24
2019-01-03T09:02:41.023Z,24
2019-01-03T09:03:43.184Z,26
2019-01-03T09:04:45.309Z,27
2019-01-03T09:05:47.436Z,28
2019-01-03T09:06:50.595Z,28
2019-01-03T09:07:52.746Z,28
2019-01-03T09:08:54.894Z,31
2019-01-03T09:09:57.013Z,32
2019-01-03T09:10:59.448Z,32
2019-01-03T09:12:01.597Z,40
2019-01-03T09:13:03.772Z,39
2019-01-03T09:14:05.940Z,41
2019-01-03T09:15:08.378Z,46
2019-01-03T09:16:10.532Z,60
2019-01-03T09:17:12.956Z,97
2019-01-03T09:18:15.945Z,66
2019-01-03T09:19:18.676Z,96
2019-01-03T09:20:20.821Z,107
2019-01-03T09:21:23.245Z,110
2019-01-03T09:22:25.404Z,108
2019-01-03T09:23:27.549Z,102
2019-01-03T09:24:29.739Z,98
2019-01-03T09:25:31.907Z,108
2019-01-03T09:26:34.335Z,113
2019-01-03T09:27:36.467Z,107
2019-01-03T09:28:38.616Z,112
2019-01-03T09:29:40.726Z,117
2019-01-03T09:30:42.853Z,116
2019-01-03T09:31:45.284Z,113
2019-01-03T09:32:47.729Z,111
2019-01-03T09:33:49.901Z,124
2019-01-03T09:34:52.051Z,136
2019-01-03T09:35:54.181Z,137
2019-01-03T09:36:56.326Z,132
2019-01-03T09:37:58.465Z,117
2019-01-03T09:39:00.895Z,118
2019-01-03T09:40:03.052Z,124
2019-01-03T09:41:05.485Z,125
2019-01-03T09:42:07.640Z,119
2019-01-03T09:43:09.816Z,118
2019-01-03T09:44:11.957Z,119
2019-01-03T09:45:14.487Z,118
2019-01-03T09:46:16.637Z,124
2019-01-03T09:47:19.077Z,131
2019-01-03T09:48:21.475Z,128
2019-01-03T09:49:23.646Z,126
2019-01-03T09:50:25.810Z,128
2019-01-03T09:51:29.230Z,127
2019-01-03T09:52:31.423Z,122
2019-01-03T09:53:33.568Z,119
2019-01-03T09:54:36.102Z,120
2019-01-03T09:55:38.249Z,123
2019-01-03T09:56:40.414Z,123
2019-01-03T09:57:42.562Z,123
2019-01-03T09:58:44.698Z,120
2019-01-03T09:59:47.117Z,121
2019-01-03T10:00:49.257Z,121
2019-01-03T10:01:51.713Z,122
2019-01-03T10:02:53.886Z,122
2019-01-03T10:03:56.037Z,125
2019-01-03T10:04:58.201Z,127
2019-01-03T10:06:00.374Z,128
2019-01-03T10:07:02.521Z,128
2019-01-03T10:08:05.045Z,131
2019-01-03T10:09:07.199Z,132
2019-01-03T10:10:09.338Z,135
2019-01-03T10:11:11.479Z,139
2019-01-03T10:12:13.955Z,136
2019-01-03T10:13:16.130Z,141
2019-01-03T10:14:18.286Z,146
2019-01-03T10:15:20.424Z,144
2019-01-03T10:16:22.554Z,141
2019-01-03T10:17:24.986Z,139
2019-01-03T10:18:27.137Z,145
2019-01-03T10:19:29.850Z,147
2019-01-03T10:20:31.994Z,147
2019-01-03T10:21:34.183Z,147
2019-01-03T10:22:36.355Z,145
2019-01-03T10:23:38.490Z,140
2019-01-03T10:24:41.067Z,141
2019-01-03T10:25:43.253Z,144
2019-01-03T10:26:45.777Z,150
2019-01-03T10:27:48.705Z,155
2019-01-03T10:28:50.867Z,162
2019-01-03T10:29:53.020Z,161
2019-01-03T10:30:55.182Z,155
2019-01-03T10:31:57.351Z,156
2019-01-03T10:32:59.626Z,160
2019-01-03T10:34:01.750Z,158
2019-01-03T10:35:03.879Z,159
2019-01-03T10:36:06.034Z,155
2019-01-03T10:37:08.462Z,152
2019-01-03T10:38:10.600Z,148
2019-01-03T10:39:12.783Z,152
2019-01-03T10:40:14.953Z,153
2019-01-03T10:41:18.311Z,149
2019-01-03T10:42:20.595Z,146
2019-01-03T10:43:22.769Z,144
2019-01-03T10:44:25.003Z,144
2019-01-03T10:45:27.161Z,141
2019-01-03T10:46:29.581Z,140
2019-01-03T10:47:31.735Z,145
2019-01-03T10:48:33.896Z,147
2019-01-03T10:49:36.052Z,144
2019-01-03T10:50:38.244Z,144
2019-01-03T10:51:40.444Z,145
2019-01-03T10:52:42.610Z,147
2019-01-03T10:53:44.770Z,144
2019-01-03T10:54:46.915Z,145
2019-01-03T10:55:49.091Z,153
2019-01-03T10:56:51.264Z,149
2019-01-03T10:57:53.410Z,148
2019-01-03T10:58:55.555Z,142
2019-01-03T10:59:57.716Z,142
2019-01-03T11:00:59.995Z,147
2019-01-03T11:02:02.188Z,143
2019-01-03T11:03:04.697Z,149
2019-01-03T11:04:06.999Z,152
2019-01-03T11:05:09.134Z,150
2019-01-03T11:06:11.276Z,157
2019-01-03T11:07:13.430Z,145
2019-01-03T11:08:15.851Z,125
2019-01-03T11:09:17.996Z,113
2019-01-03T11:10:20.175Z,114
2019-01-03T11:11:22.383Z,87
2019-01-03T11:12:24.502Z,65
2019-01-03T11:13:26.699Z,53
2019-01-03T11:14:28.831Z,69
2019-01-03T11:15:30.999Z,44
2019-01-03T11:16:33.166Z,153
2019-01-03T11:17:35.327Z,158
2019-01-03T11:18:37.784Z,154
2019-01-03T11:19:39.995Z,155
2019-01-03T11:20:42.186Z,154
2019-01-03T11:21:44.342Z,154
2019-01-03T11:22:46.512Z,155
2019-01-03T11:23:48.642Z,155
2019-01-03T11:24:51.157Z,155
2019-01-03T11:25:53.318Z,154
2019-01-03T11:26:55.446Z,156
2019-01-03T11:27:57.720Z,154
2019-01-03T11:28:59.902Z,144
2019-01-03T11:30:02.469Z,105
2019-01-03T11:31:04.646Z,128
2019-01-03T11:32:06.814Z,157
2019-01-03T11:33:08.955Z,107
2019-01-03T11:34:11.128Z,127
2019-01-03T11:35:13.290Z,168
2019-01-03T11:36:15.561Z,174
2019-01-03T11:37:17.712Z,173
2019-01-03T11:38:20.383Z,172
2019-01-03T11:39:23.425Z,180
2019-01-03T11:40:25.649Z,184
2019-01-03T11:41:27.909Z,180
2019-01-03T11:42:30.092Z,177
2019-01-03T11:43:32.909Z,180
2019-01-03T11:44:36.016Z,179
2019-01-03T11:45:38.392Z,162
2019-01-03T11:46:40.995Z,170
2019-01-03T11:47:44.024Z,174
2019-01-03T11:48:47.016Z,170
2019-01-03T11:49:49.422Z,171
2019-01-03T11:50:52.860Z,140
2019-01-03T11:51:55.132Z,172
2019-01-03T11:52:58.325Z,171
2019-01-03T11:54:00.887Z,171
2019-01-03T11:55:04.127Z,176
2019-01-03T11:56:07.249Z,176
2019-01-03T11:57:09.923Z,171
2019-01-03T11:58:13.709Z,169
2019-01-03T11:59:16.379Z,158
2019-01-03T12:00:20.387Z,152
2019-01-03T12:01:25.091Z,132
2019-01-03T12:02:28.551Z,97
2019-01-03T12:03:30.777Z,134
2019-01-03T12:04:33.095Z,101
2019-01-03T12:05:35.273Z,101
2019-01-03T12:06:37.506Z,118
2019-01-03T12:07:39.782Z,83
2019-01-03T12:08:42.035Z,84
2019-01-03T12:09:44.887Z,99
2019-01-03T12:10:47.098Z,108
2019-01-03T12:11:49.324Z,124
2019-01-03T12:12:51.782Z,94
2019-01-03T12:13:55.348Z,72
2019-01-03T12:14:57.514Z,60
2019-01-03T12:15:59.763Z,53
2019-01-03T12:17:01.955Z,58
2019-01-03T12:18:04.114Z,55
2019-01-03T12:19:06.551Z,50
2019-01-03T12:20:09.736Z,47
2019-01-03T12:21:11.902Z,43
2019-01-03T12:22:14.069Z,44
2019-01-03T12:23:16.218Z,45
2019-01-03T12:24:18.437Z,58
2019-01-03T12:25:20.620Z,62
2019-01-03T12:26:22.827Z,66
2019-01-03T12:27:25.022Z,86
2019-01-03T12:28:27.183Z,92
2019-01-03T12:29:29.408Z,60
2019-01-03T12:30:31.856Z,72
2019-01-03T12:31:34.350Z,64
2019-01-03T12:32:36.526Z,57
2019-01-03T12:33:39.158Z,44
2019-01-03T12:34:41.341Z,42
2019-01-03T12:35:43.543Z,35
2019-01-03T12:36:45.709Z,32
2019-01-03T12:37:48.251Z,31
2019-01-03T12:38:50.970Z,31
2019-01-03T12:39:53.433Z,31
2019-01-03T12:40:55.606Z,31
2019-01-03T12:41:57.783Z,32
2019-01-03T12:43:00.196Z,31
2019-01-03T12:44:02.353Z,31
2019-01-03T12:45:04.528Z,30
2019-01-03T12:46:06.679Z,31
2019-01-03T12:47:08.833Z,33
2019-01-03T12:48:10.999Z,35
2019-01-03T12:49:13.131Z,34
2019-01-03T12:50:15.264Z,33
2019-01-03T12:51:17.478Z,34
2019-01-03T12:52:19.638Z,31
2019-01-03T12:53:21.824Z,31
2019-01-03T12:54:23.981Z,32
2019-01-03T12:55:26.125Z,31
2019-01-03T12:56:28.566Z,30
2019-01-03T12:57:30.724Z,29
2019-01-03T12:58:32.867Z,27
2019-01-03T12:59:35.027Z,26
2019-01-03T13:00:37.200Z,26
2019-01-03T13:01:39.354Z,26
2019-01-03T13:02:41.525Z,27
2019-01-03T13:03:44.367Z,28
2019-01-03T13:04:46.912Z,30
2019-01-03T13:05:49.053Z,31
2019-01-03T13:06:51.567Z,31
2019-01-03T13:07:53.750Z,32
2019-01-03T13:08:56.165Z,33
2019-01-03T13:09:58.292Z,33
2019-01-03T13:11:00.460Z,35
2019-01-03T13:12:02.625Z,36
2019-01-03T13:13:04.765Z,38
2019-01-03T13:14:06.912Z,40
2019-01-03T13:15:09.344Z,39
2019-01-03T13:16:11.474Z,35
2019-01-03T13:17:13.655Z,31
2019-01-03T13:18:15.810Z,29
2019-01-03T13:19:18.514Z,28
2019-01-03T13:20:20.654Z,28
2019-01-03T13:21:22.776Z,28
2019-01-03T13:22:24.921Z,27
2019-01-03T13:23:27.047Z,26
2019-01-03T13:24:29.232Z,26
2019-01-03T13:25:31.370Z,25
2019-01-03T13:26:33.520Z,25
2019-01-03T13:27:35.690Z,25
2019-01-03T13:28:37.846Z,25
2019-01-03T13:29:39.999Z,24
2019-01-03T13:30:42.144Z,24
2019-01-03T13:31:45.675Z,24
2019-01-03T13:32:47.811Z,24
2019-01-03T13:33:49.970Z,24
2019-01-03T13:34:52.409Z,24
2019-01-03T13:35:54.856Z,23
2019-01-03T13:36:56.993Z,23
2019-01-03T13:37:59.410Z,23
2019-01-03T13:39:01.542Z,22
2019-01-03T13:40:03.694Z,22
2019-01-03T13:41:06.132Z,22
2019-01-03T13:42:08.274Z,22
2019-01-03T13:43:10.475Z,22
2019-01-03T13:44:12.898Z,21
2019-01-03T13:45:15.348Z,21
2019-01-03T13:46:17.502Z,20
2019-01-03T13:47:19.655Z,20
2019-01-03T13:48:21.805Z,20
2019-01-03T13:49:23.939Z,20
2019-01-03T13:50:26.481Z,19
2019-01-03T13:51:28.630Z,19
2019-01-03T13:52:30.775Z,19
2019-01-03T13:53:32.914Z,18
2019-01-03T13:54:35.070Z,18
2019-01-03T13:55:37.219Z,18
2019-01-03T13:56:39.345Z,18
2019-01-03T13:57:41.495Z,17
2019-01-03T13:58:43.641Z,17
2019-01-03T13:59:45.786Z,17
2019-01-03T14:00:47.934Z,16
2019-01-03T14:01:50.074Z,16
2019-01-03T14:02:52.205Z,16
2019-01-03T14:03:54.351Z,15
2019-01-03T14:04:56.800Z,15
2019-01-03T14:05:58.931Z,15
2019-01-03T14:07:01.076Z,15
2019-01-03T14:08:03.521Z,14
2019-01-03T14:09:05.647Z,14
2019-01-03T14:10:07.810Z,14
2019-01-03T14:11:09.950Z,13
2019-01-03T14:12:12.077Z,13
2019-01-03T14:13:14.208Z,12
2019-01-03T14:14:16.375Z,12
2019-01-03T14:15:18.542Z,11
2019-01-03T14:16:20.682Z,11
2019-01-03T14:17:29.174Z,11
2019-01-03T14:18:35.397Z,11
2019-01-03T14:19:37.570Z,10
2019-01-03T14:20:39.733Z,10
2019-01-03T14:21:41.889Z,9
2019-01-03T14:22:44.040Z,9
2019-01-03T14:23:46.193Z,8
2019-01-03T14:24:48.718Z,8
2019-01-03T14:25:50.861Z,8
2019-01-03T14:26:53.029Z,8
2019-01-03T14:27:55.206Z,7
2019-01-03T14:28:57.352Z,7
2019-01-03T14:29:59.728Z,7
2019-01-03T14:31:02.264Z,7
2019-01-03T14:32:04.452Z,7
2019-01-03T14:33:06.619Z,7
2019-01-03T14:34:09.157Z,7
2019-01-03T14:35:11.334Z,7
2019-01-03T14:36:13.516Z,7
2019-01-03T14:37:15.670Z,7
2019-01-03T14:38:18.126Z,7
2019-01-03T14:39:20.318Z,7
2019-01-03T14:40:22.462Z,6
2019-01-03T14:41:24.603Z,6
2019-01-03T14:42:26.756Z,6
2019-01-03T14:43:28.942Z,5
2019-01-03T14:44:31.088Z,5
2019-01-03T14:45:33.287Z,5
2019-01-03T14:46:35.429Z,4
2019-01-03T14:47:39.268Z,4
2019-01-03T14:48:41.879Z,4
2019-01-03T14:49:44.048Z,4
2019-01-03T14:50:46.217Z,4
2019-01-03T14:51:48.724Z,3
2019-01-03T14:52:50.865Z,3
2019-01-03T14:53:53.072Z,3
2019-01-03T14:54:55.204Z,3
2019-01-03T14:55:57.358Z,3
2019-01-03T14:56:59.789Z,2
2019-01-03T14:58:01.973Z,2
2019-01-03T14:59:04.102Z,2
2019-01-03T15:00:06.330Z,2
2019-01-03T15:01:08.472Z,2
2019-01-03T15:02:10.640Z,2
2019-01-03T15:03:12.822Z,1